Terminal Aerodrome Forecast
Issued by NWS

Current Version | Previous Version | Text Only | Print | Product List | Glossary On
Versions: 1 2 3 4 5 6 7 8 9 10 11 12 13 14
000
FTUS45 KABQ 201100
TAFSAF
TAF
KSAF 201126Z 2012/2112 VRB05KT P6SM SCT060 BKN120
     FM201600 30007KT P6SM SCT060 SCT100
     FM201900 29010KT P6SM SCT070 SCT150
     FM210100 VRB05KT P6SM FEW120=

USA.gov is the U.S. government's official web portal to all federal, state and local government web resources and services.